KOKK/OKK METAR and TAF weather

Enter ICAO airport designator
Station Type Date Time Source
KOKK METAR 2020/08/15 10:56 UTC NOAA

KOKK 151056Z AUTO 09004KT 9SM CLR 17/17 A2997 RMK AO2 SLP145 T01720172


Station Type Date Time Source
KOKK Decoded METAR 2020/08/15 10:56 UTC NOAA

Kokomo, Kokomo Municipal Airport, IN, United States (KOKK) 40-32N 086-04W
Aug 15, 2020 - 06:56 AM EDT / 2020.08.15 1056 UTC
Wind: from the E (090 degrees) at 5 MPH (4 KT):0
Visibility: 9 mile(s):0
Sky conditions: clear
Temperature: 63.0 F (17.2 C)
Dew Point: 63.0 F (17.2 C)
Relative Humidity: 100%
Pressure (altimeter): 29.97 in. Hg (1014 hPa)
ob: KOKK 151056Z AUTO 09004KT 9SM CLR 17/17 A2997 RMK AO2 SLP145 T01720172
cycle: 11

Station Type Date Time Source
KOKK TAF UTC NOAA

Error!

Example: see airport list